This is the latest recevied weather packets stored in our database for station/object KQ4HEI. If no packets are shown the sender has not sent any weather packets the latest 10 day(s).
| Time | Temp. | Humidity | Pressure | Rain* | Wind** | Luminosity | Snow |
|---|---|---|---|---|---|---|---|
| 1777867292 | 9.44° C | 94% | 1017.4 hPa | 0 mm | - | - | - |
| 1777866692 | 10° C | 94% | 1017.4 hPa | 0 mm | - | - | - |
| 1777866092 | 10° C | 94% | 1017.4 hPa | 0 mm | - | - | - |
| 1777865492 | 10° C | 93% | 1017.4 hPa | 0 mm | - | - | - |
| 1777864892 | 10.56° C | 91% | 1017.4 hPa | 0 mm | - | - | - |
| 1777864292 | 10.56° C | 90% | 1017.2 hPa | 0 mm | - | - | - |
| 1777863692 | 10.56° C | 88% | 1017.2 hPa | 0 mm | - | - | - |
| 1777863092 | 10.56° C | 86% | 1017.2 hPa | 0 mm | - | - | - |
| 1777862492 | 10.56° C | 87% | 1017.2 hPa | 0 mm | - | - | - |
| 1777861892 | 11.11° C | 87% | 1017.1 hPa | 0 mm | - | - | - |
| 1777861292 | 11.67° C | 85% | 1016.9 hPa | 0 mm | - | - | - |
| 1777860692 | 11.67° C | 82% | 1016.9 hPa | 0 mm | - | - | - |
| 1777860092 | 12.22° C | 80% | 1016.9 hPa | 0 mm | - | - | - |
| 1777859492 | 12.78° C | 76% | 1016.7 hPa | 0 mm | - | - | - |
| 1777858892 | 12.78° C | 73% | 1016.6 hPa | 0 mm | - | - | - |
| 1777858292 | 13.33° C | 73% | 1016.6 hPa | 0 mm | - | - | - |
| 1777857692 | 13.89° C | 69% | 1016.4 hPa | 0 mm | - | - | - |
| 1777857092 | 14.44° C | 68% | 1016.3 hPa | 0 mm | - | - | - |
| 1777856492 | 15.56° C | 64% | 1016.2 hPa | 0 mm | - | - | - |
| 1777855892 | 16.11° C | 66% | 1016.1 hPa | 0 mm | - | - | - |
| 1777855292 | 17.22° C | 58% | 1016 hPa | 0 mm | - | - | - |
| 1777854692 | 17.78° C | 56% | 1015.9 hPa | 0 mm | - | - | - |
| 1777854092 | 18.89° C | 54% | 1015.7 hPa | 0 mm | - | - | - |
| 1777853492 | 20° C | 50% | 1015.9 hPa | 0 mm | - | - | - |
| 1777852893 | 21.67° C | 45% | 1015.8 hPa | 0 mm | - | - | - |
* Rain latest hour (hover to see other rain measurements)
** Current wind speed in m/s (hover to see current wind gust speed)